createdAt,value
2022-12-04T00:01:49.362Z,33.37
2022-12-04T00:04:17.249Z,38.33
2022-12-04T00:06:47.521Z,37.87
2022-12-04T00:09:34.490Z,37.47
2022-12-04T00:12:04.145Z,33.97
2022-12-04T00:14:34.487Z,35.87
2022-12-04T00:17:03.445Z,38.57
2022-12-04T00:19:31.342Z,36.93
2022-12-04T00:21:59.253Z,33.77
2022-12-04T00:24:29.324Z,37.30
2022-12-04T00:27:20.580Z,36.70
2022-12-04T00:29:53.243Z,37.13
2022-12-04T00:32:21.316Z,38.77
2022-12-04T00:34:54.633Z,35.10
2022-12-04T00:37:23.535Z,34.87
2022-12-04T00:39:52.378Z,36.67
2022-12-04T00:42:22.601Z,37.77
2022-12-04T00:44:55.745Z,36.40
2022-12-04T00:47:23.638Z,36.77
2022-12-04T00:49:54.637Z,39.37
2022-12-04T00:52:23.467Z,36.23
2022-12-04T00:54:53.837Z,35.93
2022-12-04T00:57:23.590Z,35.37
2022-12-04T00:59:56.862Z,37.43
2022-12-04T01:02:27.424Z,34.27
2022-12-04T01:04:58.294Z,36.03
2022-12-04T01:07:29.354Z,41.00
2022-12-04T01:10:12.699Z,36.07
2022-12-04T01:12:42.123Z,35.07
2022-12-04T01:15:12.354Z,36.43
2022-12-04T01:17:40.210Z,31.27
2022-12-04T01:20:10.425Z,37.47
2022-12-04T01:22:39.543Z,33.57
2022-12-04T01:25:08.662Z,36.73
2022-12-04T01:27:37.550Z,35.30
2022-12-04T01:30:08.103Z,35.37
2022-12-04T01:32:38.607Z,34.37
2022-12-04T01:35:07.302Z,33.73
2022-12-04T01:37:35.989Z,34.73
2022-12-04T01:40:04.872Z,33.80
2022-12-04T01:42:32.773Z,34.73
2022-12-04T01:45:36.013Z,35.37
2022-12-04T01:48:16.170Z,37.53
2022-12-04T01:50:46.178Z,34.07
2022-12-04T01:53:16.059Z,35.47
2022-12-04T01:55:49.208Z,30.77
2022-12-04T01:58:25.062Z,33.73
2022-12-04T02:00:58.521Z,35.57
2022-12-04T02:03:28.468Z,34.10
2022-12-04T02:05:56.310Z,33.53
2022-12-04T02:08:24.873Z,36.77
2022-12-04T02:11:02.920Z,30.87
2022-12-04T02:13:36.842Z,34.63
2022-12-04T02:16:22.346Z,42.23
2022-12-04T02:19:03.092Z,33.13
2022-12-04T02:21:35.279Z,32.97
2022-12-04T02:24:46.850Z,33.73
2022-12-04T02:27:29.526Z,33.93
2022-12-04T02:30:03.774Z,32.43
2022-12-04T02:32:39.415Z,36.20
2022-12-04T02:35:12.372Z,36.40
2022-12-04T02:37:44.959Z,36.90
2022-12-04T02:40:18.262Z,38.40
2022-12-04T02:42:50.086Z,35.23
2022-12-04T02:45:22.696Z,36.27
2022-12-04T02:47:52.230Z,35.83
2022-12-04T02:50:22.874Z,36.90
2022-12-04T02:52:54.299Z,35.73
2022-12-04T02:55:27.742Z,40.33
2022-12-04T02:58:00.549Z,33.27
2022-12-04T03:00:31.723Z,38.53
2022-12-04T03:03:04.903Z,39.30
2022-12-04T03:05:39.837Z,38.03
2022-12-04T03:08:12.165Z,37.23
2022-12-04T03:10:47.166Z,36.33
2022-12-04T03:13:19.505Z,36.60
2022-12-04T03:15:52.996Z,36.23
2022-12-04T03:18:25.079Z,36.80
2022-12-04T03:21:02.220Z,39.13
2022-12-04T03:23:34.747Z,37.53
2022-12-04T03:26:08.167Z,37.97
2022-12-04T03:28:42.462Z,37.37
2022-12-04T03:31:12.468Z,37.93
2022-12-04T03:33:43.805Z,38.10
2022-12-04T03:36:17.329Z,42.60
2022-12-04T03:38:51.871Z,40.87
2022-12-04T03:41:27.432Z,38.17
2022-12-04T03:44:01.468Z,38.33
2022-12-04T03:46:34.717Z,39.27
2022-12-04T03:49:13.750Z,35.90
2022-12-04T03:51:48.981Z,42.83
2022-12-04T03:54:20.471Z,37.90
2022-12-04T03:56:53.034Z,38.67
2022-12-04T03:59:24.386Z,39.53
2022-12-04T04:01:54.712Z,39.83
2022-12-04T04:04:28.533Z,38.70
2022-12-04T04:07:02.287Z,44.50
2022-12-04T04:09:36.134Z,39.13
2022-12-04T04:12:08.825Z,37.93
2022-12-04T04:14:58.247Z,39.30
2022-12-04T04:17:49.811Z,36.97
2022-12-04T04:20:40.595Z,37.87
2022-12-04T04:23:29.582Z,40.30
2022-12-04T04:25:59.088Z,41.20
2022-12-04T04:28:32.294Z,37.37
2022-12-04T04:31:09.927Z,37.67
2022-12-04T04:33:44.866Z,37.83
2022-12-04T04:36:19.351Z,40.00
2022-12-04T04:38:53.532Z,42.00
2022-12-04T04:41:28.129Z,38.60
2022-12-04T04:44:03.325Z,40.53
2022-12-04T04:46:34.305Z,42.93
2022-12-04T04:49:07.841Z,36.67
2022-12-04T04:51:36.878Z,36.63
2022-12-04T04:54:08.890Z,39.17
2022-12-04T04:56:42.167Z,37.60
2022-12-04T04:59:10.430Z,39.67
2022-12-04T05:01:40.000Z,42.73
2022-12-04T05:04:09.856Z,40.67
2022-12-04T05:06:37.860Z,36.13
2022-12-04T05:09:06.253Z,43.30
2022-12-04T05:11:34.173Z,39.07
2022-12-04T05:14:02.075Z,41.37
2022-12-04T05:16:30.047Z,42.57
2022-12-04T05:19:15.296Z,42.57
2022-12-04T05:21:44.506Z,39.03
2022-12-04T05:24:12.441Z,43.70
2022-12-04T05:26:40.303Z,41.73
2022-12-04T05:29:08.269Z,40.27
2022-12-04T05:31:36.231Z,43.80
2022-12-04T05:34:04.140Z,41.73
2022-12-04T05:36:31.982Z,42.13
2022-12-04T05:39:01.161Z,40.07
2022-12-04T05:41:29.049Z,42.17
2022-12-04T05:43:57.134Z,43.50
2022-12-04T05:46:25.218Z,40.47
2022-12-04T05:48:53.219Z,40.00
2022-12-04T05:51:21.075Z,41.07
2022-12-04T05:53:48.986Z,38.93
2022-12-04T05:56:18.240Z,43.77
2022-12-04T05:58:46.156Z,39.73
2022-12-04T06:01:16.109Z,39.87
2022-12-04T06:03:44.188Z,41.50
2022-12-04T06:06:21.147Z,41.77
2022-12-04T06:08:49.786Z,42.67
2022-12-04T06:11:20.689Z,44.17
2022-12-04T06:13:48.936Z,43.03
2022-12-04T06:16:18.370Z,41.03
2022-12-04T06:18:49.666Z,39.97
2022-12-04T06:21:17.666Z,42.53
2022-12-04T06:23:45.810Z,40.27
2022-12-04T06:26:23.401Z,43.47
2022-12-04T06:28:53.301Z,40.90
2022-12-04T06:31:21.685Z,38.87
2022-12-04T06:33:49.983Z,45.00
2022-12-04T06:36:21.066Z,42.37
2022-12-04T06:38:49.574Z,44.17
2022-12-04T06:41:21.441Z,39.47
2022-12-04T06:43:50.718Z,41.40
2022-12-04T06:46:20.752Z,42.73
2022-12-04T06:48:49.364Z,44.27
2022-12-04T06:51:19.220Z,39.50
2022-12-04T06:53:47.680Z,43.17
2022-12-04T06:56:18.871Z,42.57
2022-12-04T06:58:49.288Z,41.87
2022-12-04T07:01:21.196Z,38.07
2022-12-04T07:03:51.493Z,42.13
2022-12-04T07:06:25.258Z,41.87
2022-12-04T07:08:55.168Z,42.87
2022-12-04T07:11:23.673Z,37.30
2022-12-04T07:14:10.280Z,40.37
2022-12-04T07:19:22.966Z,37.80
2022-12-04T07:21:52.492Z,44.07
2022-12-04T07:24:24.844Z,44.97
2022-12-04T07:26:53.770Z,43.63
2022-12-04T07:29:58.268Z,42.20
2022-12-04T07:35:12.652Z,44.10
2022-12-04T07:38:10.577Z,40.77
2022-12-04T07:44:00.056Z,40.87
2022-12-04T07:46:44.519Z,37.57
2022-12-04T07:49:40.513Z,45.90
2022-12-04T07:52:09.717Z,43.53
2022-12-04T07:57:32.378Z,44.03
2022-12-04T08:03:29.597Z,37.80
2022-12-04T08:06:15.949Z,41.40
2022-12-04T08:09:03.527Z,43.50
2022-12-04T08:11:37.076Z,38.67
2022-12-04T08:14:12.684Z,42.43
2022-12-04T08:16:48.253Z,41.60
2022-12-04T08:29:05.109Z,41.10
2022-12-04T08:37:46.424Z,38.27
2022-12-04T08:54:23.405Z,40.47
2022-12-04T08:56:51.970Z,36.13
2022-12-04T08:59:27.754Z,37.73
2022-12-04T09:01:55.733Z,40.83
2022-12-04T09:04:51.586Z,39.83
2022-12-04T09:07:22.917Z,39.97
2022-12-04T09:10:13.047Z,41.00
2022-12-04T09:12:41.157Z,39.27
2022-12-04T09:15:16.819Z,42.07
2022-12-04T09:21:25.358Z,40.73
2022-12-04T09:26:49.035Z,40.27
2022-12-04T09:29:19.266Z,42.53
2022-12-04T09:41:11.711Z,35.57
2022-12-04T09:44:53.069Z,35.97
2022-12-04T09:47:32.179Z,37.40
2022-12-04T09:51:24.275Z,36.13
2022-12-04T09:53:57.191Z,35.37
2022-12-04T09:56:55.197Z,33.30
2022-12-04T09:59:29.688Z,32.00
2022-12-04T10:06:12.051Z,35.57
2022-12-04T10:09:00.422Z,31.53
2022-12-04T10:11:49.089Z,33.37
2022-12-04T10:18:02.086Z,35.47
2022-12-04T10:21:15.426Z,28.70
2022-12-04T10:27:31.353Z,29.63
2022-12-04T10:30:10.463Z,26.33
2022-12-04T10:32:41.284Z,26.87
2022-12-04T10:35:46.799Z,26.97
2022-12-04T10:41:30.871Z,28.07
2022-12-04T10:43:59.912Z,28.90
2022-12-04T10:46:51.433Z,26.27
2022-12-04T10:49:25.323Z,27.77
2022-12-04T10:55:39.033Z,27.10
2022-12-04T10:58:17.164Z,24.87
2022-12-04T11:01:09.444Z,23.10
2022-12-04T11:03:53.371Z,20.57
2022-12-04T11:06:29.563Z,20.33
2022-12-04T11:13:05.049Z,16.90
2022-12-04T11:15:36.264Z,19.77
2022-12-04T11:18:34.001Z,19.27
2022-12-04T11:21:14.822Z,18.97
2022-12-04T11:23:55.045Z,21.80
2022-12-04T11:30:13.405Z,19.37
2022-12-04T11:39:27.415Z,16.53
2022-12-04T11:42:34.166Z,19.00
2022-12-04T11:45:32.135Z,12.87
2022-12-04T11:48:30.869Z,18.03
2022-12-04T11:51:13.661Z,16.63
2022-12-04T11:53:55.861Z,16.67
2022-12-04T11:56:34.027Z,16.87
2022-12-04T12:02:50.016Z,18.17
2022-12-04T12:06:02.955Z,15.23
2022-12-04T12:09:02.990Z,16.23
2022-12-04T12:11:41.610Z,17.00
2022-12-04T12:14:21.650Z,14.17
2022-12-04T12:17:17.303Z,17.33
2022-12-04T12:24:11.001Z,17.07
2022-12-04T12:26:58.105Z,16.60
2022-12-04T12:36:07.897Z,17.53
2022-12-04T12:38:41.767Z,18.20
2022-12-04T12:41:17.473Z,16.47
2022-12-04T12:44:19.166Z,15.70
2022-12-04T12:52:52.862Z,18.57
2022-12-04T12:55:39.756Z,17.20
2022-12-04T13:02:39.842Z,19.63
2022-12-04T13:05:20.872Z,20.07
2022-12-04T13:07:57.088Z,20.87
2022-12-04T13:10:33.098Z,21.20
2022-12-04T13:13:07.829Z,24.90
2022-12-04T13:15:46.477Z,20.70
2022-12-04T13:18:29.648Z,20.53
2022-12-04T13:21:04.855Z,20.83
2022-12-04T13:23:47.444Z,23.93
2022-12-04T13:26:38.882Z,28.07
2022-12-04T13:32:38.668Z,24.83
2022-12-04T13:35:22.949Z,25.23
2022-12-04T13:38:20.607Z,31.27
2022-12-04T13:40:56.631Z,29.03
2022-12-04T13:47:31.394Z,32.93
2022-12-04T13:50:56.085Z,30.93
2022-12-04T13:53:38.413Z,27.30
2022-12-04T13:59:06.463Z,32.10
2022-12-04T14:01:43.711Z,29.83
2022-12-04T14:04:28.532Z,34.10
2022-12-04T14:07:05.400Z,30.00
2022-12-04T14:09:45.874Z,31.70
2022-12-04T14:12:22.934Z,36.77
2022-12-04T14:14:55.586Z,30.10
2022-12-04T14:17:38.476Z,33.47
2022-12-04T14:20:33.305Z,33.07
2022-12-04T14:23:47.412Z,33.77
2022-12-04T14:27:10.077Z,31.93
2022-12-04T14:29:36.563Z,33.03
2022-12-04T14:32:16.481Z,31.10
2022-12-04T14:35:04.519Z,29.13
2022-12-04T14:38:22.834Z,29.60
2022-12-04T14:44:55.197Z,29.87
2022-12-04T14:51:24.967Z,28.03
2022-12-04T14:54:09.808Z,30.87
2022-12-04T14:57:13.558Z,27.60
2022-12-04T15:00:06.173Z,28.30
2022-12-04T15:02:41.760Z,23.03
2022-12-04T15:05:12.631Z,27.83
2022-12-04T15:07:59.704Z,26.93
2022-12-04T15:10:49.366Z,29.27
2022-12-04T15:13:38.100Z,24.97
2022-12-04T15:16:12.205Z,25.20
2022-12-04T15:18:40.127Z,25.37
2022-12-04T15:21:11.447Z,26.80
2022-12-04T15:23:45.334Z,26.07
2022-12-04T15:26:32.752Z,30.60
2022-12-04T15:29:07.707Z,38.93
2022-12-04T15:32:57.808Z,24.70
2022-12-04T15:35:34.932Z,24.97
2022-12-04T15:38:04.172Z,23.57
2022-12-04T15:40:37.695Z,23.13
2022-12-04T15:43:16.660Z,24.60
2022-12-04T15:45:45.116Z,22.00
2022-12-04T15:48:27.003Z,22.47
2022-12-04T15:51:05.253Z,23.50
2022-12-04T15:53:47.507Z,27.50
2022-12-04T15:56:19.022Z,24.47
2022-12-04T15:58:56.481Z,23.67
2022-12-04T16:01:24.409Z,24.37
2022-12-04T16:03:55.441Z,25.20
2022-12-04T16:06:38.639Z,24.70
2022-12-04T16:09:37.335Z,25.47
2022-12-04T16:12:19.007Z,23.90
2022-12-04T16:14:47.487Z,23.93
2022-12-04T16:17:15.443Z,20.50
2022-12-04T16:19:46.401Z,21.47
2022-12-04T16:22:23.654Z,19.37
2022-12-04T16:24:56.468Z,24.17
2022-12-04T16:30:21.435Z,19.97
2022-12-04T16:32:49.400Z,23.33
2022-12-04T16:35:23.317Z,21.83
2022-12-04T16:38:10.099Z,20.93
2022-12-04T16:40:38.518Z,19.70
2022-12-04T16:43:15.952Z,18.40
2022-12-04T16:45:48.081Z,20.10
2022-12-04T16:48:17.396Z,20.13
2022-12-04T16:51:10.334Z,23.23
2022-12-04T16:53:42.498Z,21.70
2022-12-04T16:56:10.967Z,21.33
2022-12-04T16:58:47.725Z,20.30
2022-12-04T17:01:41.728Z,20.17
2022-12-04T17:04:32.618Z,18.47
2022-12-04T17:07:30.961Z,20.77
2022-12-04T17:10:00.225Z,19.17
2022-12-04T17:12:45.706Z,18.70
2022-12-04T17:15:14.270Z,21.87
2022-12-04T17:17:44.659Z,19.37
2022-12-04T17:20:14.426Z,16.83
2022-12-04T17:22:48.048Z,18.00
2022-12-04T17:25:27.417Z,15.93
2022-12-04T17:28:09.193Z,21.53
2022-12-04T17:30:37.038Z,20.37
2022-12-04T17:33:16.536Z,19.37
2022-12-04T17:35:46.415Z,20.63
2022-12-04T17:38:15.392Z,24.23
2022-12-04T17:40:44.562Z,28.43
2022-12-04T17:43:21.882Z,27.17
2022-12-04T17:45:50.323Z,27.00
2022-12-04T17:48:24.612Z,24.53
2022-12-04T17:51:23.801Z,26.03
2022-12-04T17:59:36.448Z,25.83
2022-12-04T18:04:55.398Z,32.57
2022-12-04T18:10:22.357Z,34.57
2022-12-04T18:13:00.371Z,33.33
2022-12-04T18:15:29.589Z,29.17
2022-12-04T18:17:57.437Z,34.77
2022-12-04T18:20:25.302Z,41.87
2022-12-04T18:22:53.282Z,29.73
2022-12-04T18:25:21.128Z,31.67
2022-12-04T18:30:34.496Z,31.47
2022-12-04T18:33:02.389Z,31.43
2022-12-04T18:35:30.236Z,28.83
2022-12-04T18:37:58.067Z,23.43
2022-12-04T18:40:33.485Z,28.03
2022-12-04T18:43:01.435Z,26.93
2022-12-04T18:45:29.643Z,40.30
2022-12-04T18:48:02.258Z,37.87
2022-12-04T18:50:30.579Z,26.67
2022-12-04T18:53:25.092Z,31.47
2022-12-04T18:55:54.203Z,30.37
2022-12-04T18:58:30.645Z,26.03
2022-12-04T19:01:23.894Z,30.87
2022-12-04T19:04:06.652Z,32.50
2022-12-04T19:06:36.600Z,28.30
2022-12-04T19:09:09.793Z,29.07
2022-12-04T19:11:45.733Z,27.33
2022-12-04T19:14:26.305Z,27.73
2022-12-04T19:17:07.457Z,24.60
2022-12-04T19:19:41.247Z,27.93
2022-12-04T19:22:10.473Z,23.33
2022-12-04T19:24:38.666Z,25.00
2022-12-04T19:30:00.741Z,27.20
2022-12-04T19:32:34.071Z,27.17
2022-12-04T19:35:08.799Z,25.97
2022-12-04T19:37:41.594Z,24.17
2022-12-04T19:43:05.272Z,22.70
2022-12-04T19:45:40.299Z,27.23
2022-12-04T19:48:09.298Z,25.20
2022-12-04T19:50:38.455Z,27.00
2022-12-04T19:53:06.672Z,24.07
2022-12-04T19:55:38.610Z,25.17
2022-12-04T19:58:07.546Z,27.03
2022-12-04T20:00:47.862Z,25.67
2022-12-04T20:03:18.143Z,26.17
2022-12-04T20:05:51.336Z,27.97
2022-12-04T20:08:19.474Z,24.60
2022-12-04T20:10:47.719Z,24.20
2022-12-04T20:13:16.495Z,24.43
2022-12-04T20:15:45.177Z,22.17
2022-12-04T20:18:27.946Z,28.20
2022-12-04T20:21:14.628Z,24.80
2022-12-04T20:23:44.107Z,23.13
2022-12-04T20:26:15.835Z,27.00
2022-12-04T20:28:44.151Z,23.30
2022-12-04T20:31:14.163Z,28.73
2022-12-04T20:33:42.313Z,24.63
2022-12-04T20:36:12.219Z,25.03
2022-12-04T20:38:45.510Z,24.00
2022-12-04T20:41:18.360Z,24.90
2022-12-04T20:43:48.709Z,23.80
2022-12-04T20:46:33.939Z,24.03
2022-12-04T20:49:07.436Z,23.57
2022-12-04T20:51:38.690Z,25.93
2022-12-04T20:54:07.926Z,27.17
2022-12-04T20:56:41.304Z,25.40
2022-12-04T20:59:16.836Z,25.93
2022-12-04T21:01:46.765Z,21.03
2022-12-04T21:04:14.892Z,25.57
2022-12-04T21:06:44.794Z,23.93
2022-12-04T21:09:14.505Z,22.80
2022-12-04T21:11:44.248Z,24.43
2022-12-04T21:14:32.168Z,24.70
2022-12-04T21:19:55.142Z,24.27
2022-12-04T21:22:25.617Z,24.57
2022-12-04T21:24:54.053Z,22.30
2022-12-04T21:27:23.771Z,24.43
2022-12-04T21:30:19.986Z,25.53
2022-12-04T21:32:47.860Z,21.97
2022-12-04T21:35:15.792Z,21.13
2022-12-04T21:37:46.373Z,21.50
2022-12-04T21:40:18.498Z,25.13
2022-12-04T21:43:02.883Z,24.57
2022-12-04T21:45:31.856Z,24.33
2022-12-04T21:50:50.384Z,23.43
2022-12-04T22:00:36.686Z,23.37
2022-12-04T22:03:06.319Z,25.37
2022-12-04T22:05:34.558Z,22.33
2022-12-04T22:08:03.888Z,22.70
2022-12-04T22:10:49.741Z,23.93
2022-12-04T22:13:27.346Z,21.43
2022-12-04T22:15:55.524Z,20.27
2022-12-04T22:18:30.094Z,20.63
2022-12-04T22:20:58.215Z,21.57
2022-12-04T22:23:28.180Z,23.60
2022-12-04T22:25:57.551Z,24.20
2022-12-04T22:28:25.408Z,21.90
2022-12-04T22:30:55.439Z,20.87
2022-12-04T22:33:23.369Z,22.07
2022-12-04T22:35:54.492Z,20.87
2022-12-04T22:38:23.899Z,20.83
2022-12-04T22:40:53.325Z,24.57
2022-12-04T22:43:27.248Z,19.83
2022-12-04T22:45:57.802Z,19.23
2022-12-04T22:48:30.201Z,22.37
2022-12-04T22:50:58.930Z,19.63
2022-12-04T22:53:27.396Z,18.97
2022-12-04T22:55:55.527Z,21.73
2022-12-04T22:58:24.852Z,21.37
2022-12-04T23:00:54.872Z,27.00
2022-12-04T23:03:25.143Z,19.60
2022-12-04T23:05:53.027Z,21.77
2022-12-04T23:08:21.257Z,22.07
2022-12-04T23:10:49.181Z,22.17
2022-12-04T23:13:18.913Z,20.30
2022-12-04T23:15:58.518Z,19.60
2022-12-04T23:18:27.548Z,22.03
2022-12-04T23:21:08.456Z,22.00
2022-12-04T23:23:37.553Z,22.17
2022-12-04T23:26:06.383Z,23.17
2022-12-04T23:28:34.611Z,23.03
2022-12-04T23:31:04.350Z,23.83
2022-12-04T23:33:33.229Z,20.73
2022-12-04T23:36:03.939Z,23.93
2022-12-04T23:38:32.330Z,21.73
2022-12-04T23:41:07.893Z,23.50
2022-12-04T23:43:36.276Z,24.83
2022-12-04T23:46:47.078Z,24.27
2022-12-04T23:49:20.598Z,22.80
2022-12-04T23:51:59.811Z,22.77
2022-12-04T23:54:30.153Z,24.33
2022-12-04T23:57:01.861Z,23.43
